createdAt,value
2019-03-25T00:00:44.903Z,3.27
2019-03-25T00:05:48.474Z,2.97
2019-03-25T00:10:51.782Z,2.73
2019-03-25T00:15:56.466Z,2.37
2019-03-25T00:20:59.957Z,2.40
2019-03-25T00:26:03.878Z,2.40
2019-03-25T00:31:07.443Z,2.80
2019-03-25T00:36:10.994Z,2.67
2019-03-25T00:41:14.319Z,2.50
2019-03-25T00:46:17.620Z,2.43
2019-03-25T00:51:20.922Z,2.27
2019-03-25T00:56:24.210Z,2.27
2019-03-25T01:01:27.782Z,2.23
2019-03-25T01:06:31.292Z,2.60
2019-03-25T01:11:34.590Z,2.20
2019-03-25T01:16:38.110Z,2.53
2019-03-25T01:21:41.394Z,2.87
2019-03-25T01:26:44.922Z,2.87
2019-03-25T01:31:48.918Z,3.00
2019-03-25T01:36:52.465Z,3.20
2019-03-25T01:41:56.015Z,3.60
2019-03-25T01:46:59.550Z,3.57
2019-03-25T01:52:02.861Z,3.83
2019-03-25T01:57:06.154Z,2.83
2019-03-25T02:02:09.443Z,3.70
2019-03-25T02:07:13.088Z,4.40
2019-03-25T02:12:16.648Z,3.43
2019-03-25T02:17:20.193Z,4.03
2019-03-25T02:22:23.769Z,4.47
2019-03-25T02:27:27.028Z,3.40
2019-03-25T02:32:30.301Z,3.57
2019-03-25T02:37:33.592Z,3.67
2019-03-25T02:42:36.874Z,3.60
2019-03-25T02:47:40.394Z,4.40
2019-03-25T02:52:43.666Z,3.93
2019-03-25T02:57:50.448Z,3.53
2019-03-25T03:02:53.963Z,5.10
2019-03-25T03:07:57.235Z,4.40
2019-03-25T03:13:01.340Z,4.83
2019-03-25T03:18:04.857Z,5.40
2019-03-25T03:23:08.192Z,4.33
2019-03-25T03:28:11.528Z,4.17
2019-03-25T03:33:14.800Z,4.80
2019-03-25T03:38:18.338Z,4.73
2019-03-25T03:43:21.648Z,5.00
2019-03-25T03:48:25.182Z,5.33
2019-03-25T03:53:28.471Z,5.10
2019-03-25T03:58:32.087Z,4.70
2019-03-25T04:03:35.384Z,5.77
2019-03-25T04:08:38.913Z,5.10
2019-03-25T04:13:42.210Z,5.73
2019-03-25T04:18:45.493Z,5.77
2019-03-25T04:23:48.784Z,5.67
2019-03-25T04:28:52.229Z,6.60
2019-03-25T04:33:55.762Z,6.97
2019-03-25T04:38:59.287Z,8.17
2019-03-25T04:44:02.572Z,5.67
2019-03-25T04:49:06.122Z,5.67
2019-03-25T04:54:09.644Z,5.10
2019-03-25T04:59:12.944Z,3.63
2019-03-25T05:04:16.239Z,3.63
2019-03-25T05:09:19.759Z,2.23
2019-03-25T05:14:23.064Z,2.77
2019-03-25T05:19:26.337Z,2.50
2019-03-25T05:24:29.618Z,2.07
2019-03-25T05:29:32.903Z,1.73
2019-03-25T05:34:36.476Z,2.20
2019-03-25T05:39:40.281Z,2.20
2019-03-25T05:44:43.569Z,1.90
2019-03-25T05:49:46.853Z,2.07
2019-03-25T05:54:50.146Z,2.50
2019-03-25T05:59:53.434Z,1.60
2019-03-25T06:04:56.971Z,1.40
2019-03-25T06:10:00.506Z,1.10
2019-03-25T06:15:05.257Z,2.30
2019-03-25T06:20:08.766Z,1.00
2019-03-25T06:25:12.712Z,1.37
2019-03-25T06:30:16.227Z,0.60
2019-03-25T06:35:19.508Z,0.97
2019-03-25T06:40:22.781Z,0.80
2019-03-25T06:45:26.062Z,0.70
2019-03-25T06:50:29.621Z,1.70
2019-03-25T06:55:33.145Z,1.27
2019-03-25T07:00:36.462Z,2.30
2019-03-25T07:05:40.005Z,2.23
2019-03-25T07:10:43.307Z,2.40
2019-03-25T07:15:46.859Z,3.10
2019-03-25T07:20:50.529Z,2.13
2019-03-25T07:25:53.812Z,2.63
2019-03-25T07:30:57.351Z,2.90
2019-03-25T07:36:00.866Z,2.70
2019-03-25T07:41:04.232Z,2.87
2019-03-25T07:46:07.797Z,4.20
2019-03-25T07:51:11.060Z,2.27
2019-03-25T07:56:14.601Z,2.60
2019-03-25T08:01:17.892Z,2.60
2019-03-25T08:06:21.181Z,2.43
2019-03-25T08:11:24.517Z,2.90
2019-03-25T08:16:28.028Z,2.87
2019-03-25T08:21:31.343Z,2.63
2019-03-25T08:26:34.681Z,1.83
2019-03-25T08:31:37.939Z,2.53
2019-03-25T08:36:41.482Z,1.73
2019-03-25T08:41:44.765Z,1.23
2019-03-25T08:46:48.056Z,1.10
2019-03-25T08:51:51.600Z,0.40
2019-03-25T08:56:55.127Z,0.20
2019-03-25T09:01:58.414Z,0.40
2019-03-25T09:07:01.699Z,0.27
2019-03-25T09:12:05.235Z,0.30
2019-03-25T09:17:08.767Z,1.00
2019-03-25T09:22:12.058Z,1.30
2019-03-25T09:27:15.582Z,1.70
2019-03-25T09:32:18.857Z,1.40
2019-03-25T09:37:22.383Z,0.80
2019-03-25T09:42:25.671Z,0.70
2019-03-25T09:47:28.945Z,1.50
2019-03-25T09:52:38.439Z,1.40
2019-03-25T09:57:37.230Z,1.10
2019-03-25T10:02:40.757Z,1.23
2019-03-25T10:07:44.044Z,1.40
2019-03-25T10:12:47.404Z,0.70
2019-03-25T10:17:50.928Z,0.90
2019-03-25T10:22:54.456Z,1.10
2019-03-25T10:27:57.914Z,1.00
2019-03-25T10:33:01.196Z,0.27
2019-03-25T10:38:04.550Z,0.30
2019-03-25T10:43:08.086Z,0.20
2019-03-25T10:48:11.359Z,0.23
2019-03-25T10:53:14.901Z,0.40
2019-03-25T10:58:18.245Z,0.50
2019-03-25T11:03:21.523Z,0.77
2019-03-25T11:08:24.815Z,0.30
2019-03-25T11:13:28.338Z,1.33
2019-03-25T11:18:31.611Z,0.60
2019-03-25T11:23:35.214Z,0.40
2019-03-25T11:28:38.503Z,1.57
2019-03-25T11:33:41.774Z,0.70
2019-03-25T11:38:45.122Z,0.70
2019-03-25T11:43:48.649Z,1.23
2019-03-25T11:48:51.927Z,0.83
2019-03-25T11:53:55.453Z,0.60
2019-03-25T11:58:58.739Z,0.50
2019-03-25T12:04:02.026Z,1.07
2019-03-25T12:09:07.874Z,0.90
2019-03-25T12:14:11.147Z,1.00
2019-03-25T12:19:14.445Z,1.00
2019-03-25T12:24:17.961Z,0.80
2019-03-25T12:29:29.673Z,0.73
2019-03-25T12:34:26.826Z,0.73
2019-03-25T12:39:30.090Z,0.50
2019-03-25T12:44:33.383Z,0.50
2019-03-25T12:49:36.662Z,0.30
2019-03-25T12:54:40.186Z,0.50
2019-03-25T12:59:43.715Z,0.97
2019-03-25T13:04:47.245Z,0.50
2019-03-25T13:09:50.531Z,0.40
2019-03-25T13:14:54.076Z,0.50
2019-03-25T13:19:57.586Z,0.60
2019-03-25T13:25:00.868Z,1.00
2019-03-25T13:30:06.683Z,0.80
2019-03-25T13:35:11.494Z,1.00
2019-03-25T13:40:15.083Z,0.40
2019-03-25T13:45:18.357Z,0.93
2019-03-25T13:50:22.551Z,0.80
2019-03-25T13:55:26.801Z,0.80
2019-03-25T14:00:37.846Z,1.00
2019-03-25T14:05:41.367Z,0.87
2019-03-25T14:10:44.888Z,0.93
2019-03-25T14:15:48.176Z,0.93
2019-03-25T14:20:51.704Z,1.23
2019-03-25T14:25:55.217Z,0.90
2019-03-25T14:30:58.772Z,0.87
2019-03-25T14:36:02.281Z,0.80
2019-03-25T14:41:05.810Z,0.60
2019-03-25T14:46:09.415Z,0.93
2019-03-25T14:51:12.697Z,1.20
2019-03-25T14:56:15.995Z,0.70
2019-03-25T15:01:19.279Z,0.40
2019-03-25T15:06:22.789Z,0.40
2019-03-25T15:11:26.079Z,0.70
2019-03-25T15:16:31.297Z,0.90
2019-03-25T15:21:34.579Z,0.40
2019-03-25T15:26:37.853Z,1.47
2019-03-25T15:31:41.374Z,0.80
2019-03-25T15:36:44.656Z,0.40
2019-03-25T15:41:48.194Z,0.60
2019-03-25T15:46:55.894Z,0.40
2019-03-25T15:51:56.722Z,0.77
2019-03-25T15:57:00.081Z,0.80
2019-03-25T16:02:03.361Z,0.50
2019-03-25T16:07:06.957Z,0.53
2019-03-25T16:12:10.518Z,0.60
2019-03-25T16:17:14.051Z,0.30
2019-03-25T16:22:17.567Z,0.50
2019-03-25T16:27:20.867Z,0.70
2019-03-25T16:32:24.151Z,0.40
2019-03-25T16:37:27.681Z,0.40
2019-03-25T16:42:31.216Z,0.63
2019-03-25T16:47:34.521Z,0.37
2019-03-25T16:52:38.049Z,0.30
2019-03-25T16:57:41.313Z,1.60
2019-03-25T17:02:44.834Z,0.70
2019-03-25T17:07:49.213Z,0.50
2019-03-25T17:12:52.737Z,0.50
2019-03-25T17:17:56.039Z,1.13
2019-03-25T17:22:59.581Z,0.70
2019-03-25T17:28:03.107Z,0.63
2019-03-25T17:33:06.401Z,0.67
2019-03-25T17:38:09.693Z,0.53
2019-03-25T17:43:13.237Z,0.70
2019-03-25T17:48:16.776Z,0.60
2019-03-25T17:53:20.103Z,0.60
2019-03-25T17:58:23.661Z,0.73
2019-03-25T18:03:27.193Z,0.73
2019-03-25T18:08:30.489Z,0.63
2019-03-25T18:13:33.822Z,0.60
2019-03-25T18:18:37.165Z,0.87
2019-03-25T18:23:40.458Z,1.00
2019-03-25T18:28:43.737Z,1.53
2019-03-25T18:33:47.029Z,0.80
2019-03-25T18:38:50.559Z,1.00
2019-03-25T18:43:54.323Z,1.60
2019-03-25T18:48:57.600Z,0.70
2019-03-25T18:54:01.315Z,1.20
2019-03-25T18:59:04.666Z,2.80
2019-03-25T19:04:08.267Z,1.03
2019-03-25T19:09:11.859Z,1.10
2019-03-25T19:14:15.191Z,1.10
2019-03-25T19:19:18.735Z,0.83
2019-03-25T19:24:22.257Z,1.20
2019-03-25T19:29:25.537Z,2.10
2019-03-25T19:34:28.884Z,1.13
2019-03-25T19:39:32.167Z,1.63
2019-03-25T19:44:35.760Z,2.33
2019-03-25T19:49:39.171Z,1.10
2019-03-25T19:54:42.407Z,1.30
2019-03-25T19:59:45.742Z,1.40
2019-03-25T20:04:49.327Z,1.07
2019-03-25T20:09:52.640Z,1.30
2019-03-25T20:14:56.161Z,1.70
2019-03-25T20:19:59.513Z,1.43
2019-03-25T20:25:02.927Z,1.20
2019-03-25T20:30:09.058Z,1.70
2019-03-25T20:35:12.764Z,1.60
2019-03-25T20:40:16.382Z,1.10
2019-03-25T20:45:19.911Z,1.53
2019-03-25T20:50:23.200Z,1.03
2019-03-25T20:55:26.761Z,1.10
2019-03-25T21:00:49.566Z,2.00
2019-03-25T21:05:52.827Z,1.20
2019-03-25T21:10:56.143Z,1.87
2019-03-25T21:15:59.855Z,1.23
2019-03-25T21:21:03.183Z,1.00
2019-03-25T21:26:06.550Z,1.60
2019-03-25T21:31:10.270Z,1.10
2019-03-25T21:36:13.614Z,0.93
2019-03-25T21:41:17.225Z,0.90
2019-03-25T21:46:20.501Z,0.63
2019-03-25T21:51:24.114Z,1.10
2019-03-25T21:56:27.469Z,1.00
2019-03-25T22:01:30.814Z,1.20
2019-03-25T22:06:34.302Z,1.00
2019-03-25T22:11:37.868Z,1.00
2019-03-25T22:16:41.149Z,0.80
2019-03-25T22:21:44.703Z,1.60
2019-03-25T22:26:48.002Z,1.40
2019-03-25T22:31:54.611Z,1.60
2019-03-25T22:37:05.934Z,1.33
2019-03-25T22:42:15.068Z,0.90
2019-03-25T22:47:19.213Z,1.43
2019-03-25T22:52:32.462Z,1.27
2019-03-25T22:57:39.154Z,1.33
2019-03-25T23:02:42.685Z,1.30
2019-03-25T23:07:53.135Z,1.60
2019-03-25T23:12:57.110Z,2.63
2019-03-25T23:18:05.043Z,2.27
2019-03-25T23:23:17.075Z,1.87
2019-03-25T23:28:20.758Z,1.90
2019-03-25T23:33:24.046Z,1.70
2019-03-25T23:38:27.575Z,1.50
2019-03-25T23:43:31.136Z,2.40
2019-03-25T23:48:34.669Z,2.00
2019-03-25T23:53:38.203Z,1.60
2019-03-25T23:58:41.745Z,1.97
